sensor_id;sensor_type;location;lat;lon;timestamp;pressure;altitude;pressure_sealevel;temperature;humidity
48872;BME280;36154;51.674;7.824;2023-07-29T00:01:31;99979.88;;;24.21;56.16
48872;BME280;36154;51.674;7.824;2023-07-29T00:03:56;99984.25;;;24.21;55.86
48872;BME280;36154;51.674;7.824;2023-07-29T00:06:22;99975.59;;;24.20;56.11
48872;BME280;36154;51.674;7.824;2023-07-29T00:08:47;99984.25;;;24.21;55.74
48872;BME280;36154;51.674;7.824;2023-07-29T00:11:12;99980.13;;;24.16;56.32
48872;BME280;36154;51.674;7.824;2023-07-29T00:13:38;99976.53;;;24.19;56.35
48872;BME280;36154;51.674;7.824;2023-07-29T00:16:03;99971.31;;;24.19;56.40
48872;BME280;36154;51.674;7.824;2023-07-29T00:18:29;99976.53;;;24.19;56.01
48872;BME280;36154;51.674;7.824;2023-07-29T00:20:54;99972.25;;;24.18;56.20
48872;BME280;36154;51.674;7.824;2023-07-29T00:23:20;99974.00;;;24.17;56.04
48872;BME280;36154;51.674;7.824;2023-07-29T00:25:46;99956.72;;;24.16;56.57
48872;BME280;36154;51.674;7.824;2023-07-29T00:28:12;99972.31;;;24.16;56.37
48872;BME280;36154;51.674;7.824;2023-07-29T00:30:38;99978.34;;;24.17;56.61
48872;BME280;36154;51.674;7.824;2023-07-29T00:33:03;99975.00;;;24.15;56.35
48872;BME280;36154;51.674;7.824;2023-07-29T00:35:28;99980.22;;;24.15;56.84
48872;BME280;36154;51.674;7.824;2023-07-29T00:37:53;99983.75;;;24.14;56.87
48872;BME280;36154;51.674;7.824;2023-07-29T00:40:21;99974.25;;;24.13;56.87
48872;BME280;36154;51.674;7.824;2023-07-29T00:42:46;99975.16;;;24.12;56.53
48872;BME280;36154;51.674;7.824;2023-07-29T00:45:12;99969.97;;;24.12;56.73
48872;BME280;36154;51.674;7.824;2023-07-29T00:47:38;99971.75;;;24.11;57.16
48872;BME280;36154;51.674;7.824;2023-07-29T00:50:05;99963.09;;;24.11;57.09
48872;BME280;36154;51.674;7.824;2023-07-29T00:52:31;99960.50;;;24.11;56.72
48872;BME280;36154;51.674;7.824;2023-07-29T00:54:57;99963.09;;;24.11;56.61
48872;BME280;36154;51.674;7.824;2023-07-29T00:57:23;99953.59;;;24.10;56.77
48872;BME280;36154;51.674;7.824;2023-07-29T00:59:50;99961.41;;;24.10;56.73
48872;BME280;36154;51.674;7.824;2023-07-29T01:02:16;99951.00;;;24.10;57.27
48872;BME280;36154;51.674;7.824;2023-07-29T01:04:41;99957.03;;;24.10;56.95
48872;BME280;36154;51.674;7.824;2023-07-29T01:07:14;99945.78;;;24.10;56.95
48872;BME280;36154;51.674;7.824;2023-07-29T01:09:53;99944.13;;;24.09;57.29
48872;BME280;36154;51.674;7.824;2023-07-29T01:12:36;99938.94;;;24.09;56.92
48872;BME280;36154;51.674;7.824;2023-07-29T01:17:48;99933.72;;;24.09;56.91
48872;BME280;36154;51.674;7.824;2023-07-29T01:20:18;99932.88;;;24.08;57.41
48872;BME280;36154;51.674;7.824;2023-07-29T01:22:46;99934.63;;;24.08;56.92
48872;BME280;36154;51.674;7.824;2023-07-29T01:25:12;99931.19;;;24.07;56.91
48872;BME280;36154;51.674;7.824;2023-07-29T01:27:38;99936.41;;;24.07;57.05
48872;BME280;36154;51.674;7.824;2023-07-29T01:30:04;99929.44;;;24.08;57.11
48872;BME280;36154;51.674;7.824;2023-07-29T01:38:12;99928.69;;;24.06;57.13
48872;BME280;36154;51.674;7.824;2023-07-29T01:40:39;99931.28;;;24.06;57.38
48872;BME280;36154;51.674;7.824;2023-07-29T01:43:05;99926.09;;;24.06;57.08
48872;BME280;36154;51.674;7.824;2023-07-29T01:45:32;99924.31;;;24.06;57.16
48872;BME280;36154;51.674;7.824;2023-07-29T01:48:01;99916.59;;;24.05;57.17
48872;BME280;36154;51.674;7.824;2023-07-29T01:50:26;99910.47;;;24.06;57.15
48872;BME280;36154;51.674;7.824;2023-07-29T01:52:52;99915.66;;;24.06;57.36
48872;BME280;36154;51.674;7.824;2023-07-29T01:55:17;99907.88;;;24.06;57.63
48872;BME280;36154;51.674;7.824;2023-07-29T01:57:42;99913.06;;;24.06;57.24
48872;BME280;36154;51.674;7.824;2023-07-29T02:00:10;99908.78;;;24.05;57.52
48872;BME280;36154;51.674;7.824;2023-07-29T02:02:35;99907.88;;;24.06;57.24
48872;BME280;36154;51.674;7.824;2023-07-29T02:05:01;99897.47;;;24.06;57.60
48872;BME280;36154;51.674;7.824;2023-07-29T02:07:26;99900.97;;;24.05;57.52
48872;BME280;36154;51.674;7.824;2023-07-29T02:09:51;99895.75;;;24.05;57.35
48872;BME280;36154;51.674;7.824;2023-07-29T02:12:19;99892.34;;;24.04;57.42
48872;BME280;36154;51.674;7.824;2023-07-29T02:14:44;99899.19;;;24.05;57.13
48872;BME280;36154;51.674;7.824;2023-07-29T02:17:10;99887.13;;;24.04;57.66
48872;BME280;36154;51.674;7.824;2023-07-29T02:19:35;99889.72;;;24.04;57.52
48872;BME280;36154;51.674;7.824;2023-07-29T02:22:00;99895.75;;;24.05;57.61
48872;BME280;36154;51.674;7.824;2023-07-29T02:24:26;99893.16;;;24.05;57.07
48872;BME280;36154;51.674;7.824;2023-07-29T02:26:51;99894.06;;;24.04;57.19
48872;BME280;36154;51.674;7.824;2023-07-29T02:29:16;99894.06;;;24.04;57.07
48872;BME280;36154;51.674;7.824;2023-07-29T02:31:42;99894.06;;;24.04;57.64
48872;BME280;36154;51.674;7.824;2023-07-29T02:34:09;99883.66;;;24.04;57.37
48872;BME280;36154;51.674;7.824;2023-07-29T02:36:34;99886.28;;;24.04;57.21
48872;BME280;36154;51.674;7.824;2023-07-29T02:38:59;99883.66;;;24.04;57.29
48872;BME280;36154;51.674;7.824;2023-07-29T02:41:25;99882.00;;;24.03;57.42
48872;BME280;36154;51.674;7.824;2023-07-29T02:43:51;99881.06;;;24.04;57.37
48872;BME280;36154;51.674;7.824;2023-07-29T02:46:16;99878.47;;;24.04;57.34
48872;BME280;36154;51.674;7.824;2023-07-29T02:48:44;99882.75;;;24.05;57.56
48872;BME280;36154;51.674;7.824;2023-07-29T02:51:09;99885.34;;;24.05;57.17
48872;BME280;36154;51.674;7.824;2023-07-29T02:53:34;99884.53;;;24.04;57.47
48872;BME280;36154;51.674;7.824;2023-07-29T02:56:02;99878.47;;;24.04;57.19
48872;BME280;36154;51.674;7.824;2023-07-29T02:58:28;99874.13;;;24.04;57.10
48872;BME280;36154;51.674;7.824;2023-07-29T03:00:53;99883.66;;;24.04;57.48
48872;BME280;36154;51.674;7.824;2023-07-29T03:03:18;99880.16;;;24.05;57.15
48872;BME280;36154;51.674;7.824;2023-07-29T03:05:44;99875.84;;;24.04;57.47
48872;BME280;36154;51.674;7.824;2023-07-29T03:08:09;99878.47;;;24.04;57.17
48872;BME280;36154;51.674;7.824;2023-07-29T03:10:35;99865.44;;;24.04;57.74
48872;BME280;36154;51.674;7.824;2023-07-29T03:13:03;99874.94;;;24.05;57.51
48872;BME280;36154;51.674;7.824;2023-07-29T03:15:29;99870.66;;;24.04;57.59
48872;BME280;36154;51.674;7.824;2023-07-29T03:17:54;99871.50;;;24.04;57.15
48872;BME280;36154;51.674;7.824;2023-07-29T03:20:19;99868.06;;;24.04;57.29
48872;BME280;36154;51.674;7.824;2023-07-29T03:22:45;99874.13;;;24.04;57.11
48872;BME280;36154;51.674;7.824;2023-07-29T03:25:11;99869.75;;;24.05;57.02
48872;BME280;36154;51.674;7.824;2023-07-29T03:27:36;99868.25;;;24.00;57.47
48872;BME280;36154;51.674;7.824;2023-07-29T03:30:03;99873.25;;;24.04;57.57
48872;BME280;36154;51.674;7.824;2023-07-29T03:32:28;99872.44;;;24.03;57.10
48872;BME280;36154;51.674;7.824;2023-07-29T03:34:53;99870.66;;;24.04;57.64
48872;BME280;36154;51.674;7.824;2023-07-29T03:37:19;99871.59;;;24.03;57.32
48872;BME280;36154;51.674;7.824;2023-07-29T03:39:45;99882.84;;;24.03;57.47
48872;BME280;36154;51.674;7.824;2023-07-29T03:42:10;99869.00;;;24.03;57.39
48872;BME280;36154;51.674;7.824;2023-07-29T03:44:36;99868.06;;;24.04;57.28
48872;BME280;36154;51.674;7.824;2023-07-29T03:47:01;99859.41;;;24.03;57.62
48872;BME280;36154;51.674;7.824;2023-07-29T03:49:26;99852.56;;;24.02;57.58
48872;BME280;36154;51.674;7.824;2023-07-29T03:51:51;99865.44;;;24.04;57.34
48872;BME280;36154;51.674;7.824;2023-07-29T03:54:17;99867.38;;;24.00;57.50
48872;BME280;36154;51.674;7.824;2023-07-29T03:56:42;99862.97;;;24.02;57.16
48872;BME280;36154;51.674;7.824;2023-07-29T03:59:07;99869.91;;;24.02;57.60
48872;BME280;36154;51.674;7.824;2023-07-29T04:01:33;99869.91;;;24.02;57.54
48872;BME280;36154;51.674;7.824;2023-07-29T04:03:58;99869.09;;;24.01;57.58
48872;BME280;36154;51.674;7.824;2023-07-29T04:06:24;99864.72;;;24.02;57.25
48872;BME280;36154;51.674;7.824;2023-07-29T04:08:50;99859.66;;;23.98;57.37
48872;BME280;36154;51.674;7.824;2023-07-29T04:11:15;99862.19;;;24.00;57.27
48872;BME280;36154;51.674;7.824;2023-07-29T04:13:41;99857.84;;;24.00;57.68
48872;BME280;36154;51.674;7.824;2023-07-29T04:16:06;99856.16;;;23.99;57.26
48872;BME280;36154;51.674;7.824;2023-07-29T04:18:32;99863.06;;;24.00;57.26
48872;BME280;36154;51.674;7.824;2023-07-29T04:20:57;99860.44;;;24.00;57.26
48872;BME280;36154;51.674;7.824;2023-07-29T04:23:22;99854.38;;;24.00;57.18
48872;BME280;36154;51.674;7.824;2023-07-29T04:25:48;99848.25;;;24.01;57.55
48872;BME280;36154;51.674;7.824;2023-07-29T04:28:13;99857.84;;;24.00;57.59
48872;BME280;36154;51.674;7.824;2023-07-29T04:30:38;99852.63;;;24.00;57.29
48872;BME280;36154;51.674;7.824;2023-07-29T04:33:04;99847.44;;;24.00;57.41
48872;BME280;36154;51.674;7.824;2023-07-29T04:35:29;99844.91;;;23.99;57.43
48872;BME280;36154;51.674;7.824;2023-07-29T04:37:54;99847.44;;;24.00;57.17
48872;BME280;36154;51.674;7.824;2023-07-29T04:40:19;99850.94;;;23.99;57.72
48872;BME280;36154;51.674;7.824;2023-07-29T04:42:45;99859.66;;;23.98;57.63
48872;BME280;36154;51.674;7.824;2023-07-29T04:45:10;99861.34;;;23.99;57.60
48872;BME280;36154;51.674;7.824;2023-07-29T04:47:36;99857.84;;;24.00;57.71
48872;BME280;36154;51.674;7.824;2023-07-29T04:50:02;99855.31;;;23.99;57.40
48872;BME280;36154;51.674;7.824;2023-07-29T04:52:27;99856.97;;;24.00;57.75
48872;BME280;36154;51.674;7.824;2023-07-29T04:54:52;99850.94;;;23.99;57.42
48872;BME280;36154;51.674;7.824;2023-07-29T04:57:18;99851.78;;;24.00;57.78
48872;BME280;36154;51.674;7.824;2023-07-29T04:59:43;99850.13;;;23.99;57.65
48872;BME280;36154;51.674;7.824;2023-07-29T05:02:08;99854.28;;;24.02;57.32
48872;BME280;36154;51.674;7.824;2023-07-29T05:04:33;99849.19;;;24.00;57.21
48872;BME280;36154;51.674;7.824;2023-07-29T05:06:59;99840.53;;;23.99;57.54
48872;BME280;36154;51.674;7.824;2023-07-29T05:09:24;99840.53;;;23.99;57.40
48872;BME280;36154;51.674;7.824;2023-07-29T05:11:49;99841.38;;;24.00;57.63
48872;BME280;36154;51.674;7.824;2023-07-29T05:14:16;99835.25;;;24.01;57.61
48872;BME280;36154;51.674;7.824;2023-07-29T05:16:41;99830.13;;;23.99;57.50
48872;BME280;36154;51.674;7.824;2023-07-29T05:19:07;99834.44;;;24.00;57.34
48872;BME280;36154;51.674;7.824;2023-07-29T05:21:34;99830.97;;;24.00;57.56
48872;BME280;36154;51.674;7.824;2023-07-29T05:24:00;99832.81;;;23.98;57.54
48872;BME280;36154;51.674;7.824;2023-07-29T05:26:25;99851.78;;;24.00;57.56
48872;BME280;36154;51.674;7.824;2023-07-29T05:28:50;99863.06;;;24.00;57.70
48872;BME280;36154;51.674;7.824;2023-07-29T05:31:16;99866.56;;;23.99;57.94
48872;BME280;36154;51.674;7.824;2023-07-29T05:33:41;99867.47;;;23.98;57.78
48872;BME280;36154;51.674;7.824;2023-07-29T05:36:06;99873.63;;;23.97;57.72
48872;BME280;36154;51.674;7.824;2023-07-29T05:38:32;99887.53;;;23.96;57.97
48872;BME280;36154;51.674;7.824;2023-07-29T05:40:57;99889.41;;;23.94;58.06
48872;BME280;36154;51.674;7.824;2023-07-29T05:43:24;99881.59;;;23.94;57.88
48872;BME280;36154;51.674;7.824;2023-07-29T05:45:50;99882.59;;;23.92;57.68
48872;BME280;36154;51.674;7.824;2023-07-29T05:48:16;99886.88;;;23.93;58.30
48872;BME280;36154;51.674;7.824;2023-07-29T05:50:41;99890.38;;;23.92;58.03
48872;BME280;36154;51.674;7.824;2023-07-29T05:53:07;99884.34;;;23.91;58.17
48872;BME280;36154;51.674;7.824;2023-07-29T05:55:32;99867.06;;;23.90;57.90
48872;BME280;36154;51.674;7.824;2023-07-29T05:57:57;99855.00;;;23.89;58.29
48872;BME280;36154;51.674;7.824;2023-07-29T06:00:23;99852.22;;;23.92;57.93
48872;BME280;36154;51.674;7.824;2023-07-29T06:02:48;99845.41;;;23.90;58.16
48872;BME280;36154;51.674;7.824;2023-07-29T06:05:13;99839.22;;;23.92;58.12
48872;BME280;36154;51.674;7.824;2023-07-29T06:07:39;99847.94;;;23.91;58.46
48872;BME280;36154;51.674;7.824;2023-07-29T06:10:09;99856.66;;;23.90;58.40
48872;BME280;36154;51.674;7.824;2023-07-29T06:12:36;99853.13;;;23.91;58.38
48872;BME280;36154;51.674;7.824;2023-07-29T06:15:02;99859.16;;;23.92;58.13
48872;BME280;36154;51.674;7.824;2023-07-29T06:17:27;99875.63;;;23.92;57.92
48872;BME280;36154;51.674;7.824;2023-07-29T06:19:52;99881.69;;;23.93;57.91
48872;BME280;36154;51.674;7.824;2023-07-29T06:22:18;99890.31;;;23.93;58.08
48872;BME280;36154;51.674;7.824;2023-07-29T06:24:43;99898.13;;;23.93;58.25
48872;BME280;36154;51.674;7.824;2023-07-29T06:27:08;99898.28;;;23.90;58.12
48872;BME280;36154;51.674;7.824;2023-07-29T06:29:33;99916.50;;;23.90;58.01
48872;BME280;36154;51.674;7.824;2023-07-29T06:31:59;99907.19;;;23.86;58.19
48872;BME280;36154;51.674;7.824;2023-07-29T06:34:24;99921.88;;;23.87;58.39
48872;BME280;36154;51.674;7.824;2023-07-29T06:36:50;99930.69;;;23.85;58.06
48872;BME280;36154;51.674;7.824;2023-07-29T06:39:15;99932.44;;;23.84;58.16
48872;BME280;36154;51.674;7.824;2023-07-29T06:41:40;99926.50;;;23.82;58.15
48872;BME280;36154;51.674;7.824;2023-07-29T06:44:05;99926.50;;;23.82;58.13
48872;BME280;36154;51.674;7.824;2023-07-29T06:46:31;99930.00;;;23.81;57.92
48872;BME280;36154;51.674;7.824;2023-07-29T06:48:56;99931.69;;;23.82;58.20
48872;BME280;36154;51.674;7.824;2023-07-29T06:51:22;99929.09;;;23.82;57.98
48872;BME280;36154;51.674;7.824;2023-07-29T06:53:47;99935.22;;;23.81;57.60
48872;BME280;36154;51.674;7.824;2023-07-29T06:56:12;99942.09;;;23.82;57.99
48872;BME280;36154;51.674;7.824;2023-07-29T06:58:38;99942.09;;;23.82;57.72
48872;BME280;36154;51.674;7.824;2023-07-29T07:01:03;99950.81;;;23.81;57.40
48872;BME280;36154;51.674;7.824;2023-07-29T07:03:28;99949.13;;;23.80;57.51
48872;BME280;36154;51.674;7.824;2023-07-29T07:05:54;99952.66;;;23.79;57.42
48872;BME280;36154;51.674;7.824;2023-07-29T07:08:19;99955.28;;;23.79;57.64
48872;BME280;36154;51.674;7.824;2023-07-29T07:10:46;99956.19;;;23.78;57.33
48872;BME280;36154;51.674;7.824;2023-07-29T07:13:12;99956.19;;;23.78;56.94
48872;BME280;36154;51.674;7.824;2023-07-29T07:15:37;99964.94;;;23.77;56.93
48872;BME280;36154;51.674;7.824;2023-07-29T07:18:02;99971.03;;;23.76;57.30
48872;BME280;36154;51.674;7.824;2023-07-29T07:20:28;99966.66;;;23.76;56.52
48872;BME280;36154;51.674;7.824;2023-07-29T07:22:54;99971.03;;;23.76;56.69
48872;BME280;36154;51.674;7.824;2023-07-29T07:25:19;99974.63;;;23.73;56.51
48872;BME280;36154;51.674;7.824;2023-07-29T07:27:44;99977.16;;;23.75;56.09
48872;BME280;36154;51.674;7.824;2023-07-29T07:30:10;99968.59;;;23.73;55.60
48872;BME280;36154;51.674;7.824;2023-07-29T07:32:35;99974.81;;;23.70;55.99
48872;BME280;36154;51.674;7.824;2023-07-29T07:35:01;99973.94;;;23.70;55.74
48872;BME280;36154;51.674;7.824;2023-07-29T07:37:26;99981.75;;;23.70;55.38
48872;BME280;36154;51.674;7.824;2023-07-29T07:39:52;99984.34;;;23.70;55.18
48872;BME280;36154;51.674;7.824;2023-07-29T07:42:17;99988.72;;;23.69;54.81
48872;BME280;36154;51.674;7.824;2023-07-29T07:44:43;99993.94;;;23.69;54.48
48872;BME280;36154;51.674;7.824;2023-07-29T07:47:08;99996.59;;;23.68;54.15
48872;BME280;36154;51.674;7.824;2023-07-29T07:49:33;99980.25;;;23.66;53.98
48872;BME280;36154;51.674;7.824;2023-07-29T07:51:59;99982.09;;;23.63;53.66
48872;BME280;36154;51.674;7.824;2023-07-29T07:54:24;99991.72;;;23.61;53.44
48872;BME280;36154;51.674;7.824;2023-07-29T07:56:49;99988.38;;;23.59;53.50
48872;BME280;36154;51.674;7.824;2023-07-29T07:59:14;99990.97;;;23.59;53.13
48872;BME280;36154;51.674;7.824;2023-07-29T08:01:40;99993.56;;;23.59;53.23
48872;BME280;36154;51.674;7.824;2023-07-29T08:04:05;99999.66;;;23.58;52.91
48872;BME280;36154;51.674;7.824;2023-07-29T08:06:31;99983.31;;;23.56;52.96
48872;BME280;36154;51.674;7.824;2023-07-29T08:08:57;99983.31;;;23.56;52.48
48872;BME280;36154;51.674;7.824;2023-07-29T08:11:22;99979.88;;;23.56;52.45
48872;BME280;36154;51.674;7.824;2023-07-29T08:13:48;99967.78;;;23.55;52.02
48872;BME280;36154;51.674;7.824;2023-07-29T08:16:13;99966.88;;;23.56;51.85
48872;BME280;36154;51.674;7.824;2023-07-29T08:18:39;99972.09;;;23.56;52.11
48872;BME280;36154;51.674;7.824;2023-07-29T08:21:04;99953.06;;;23.55;52.07
48872;BME280;36154;51.674;7.824;2023-07-29T08:23:34;99955.66;;;23.55;52.06
48872;BME280;36154;51.674;7.824;2023-07-29T08:26:02;99950.44;;;23.55;51.92
48872;BME280;36154;51.674;7.824;2023-07-29T08:28:35;99944.31;;;23.56;52.10
48872;BME280;36154;51.674;7.824;2023-07-29T08:31:01;99952.13;;;23.56;52.09
48872;BME280;36154;51.674;7.824;2023-07-29T08:33:27;99953.88;;;23.56;52.30
48872;BME280;36154;51.674;7.824;2023-07-29T08:35:53;99954.63;;;23.58;52.09
48872;BME280;36154;51.674;7.824;2023-07-29T08:38:18;99951.97;;;23.59;51.91
48872;BME280;36154;51.674;7.824;2023-07-29T08:41:04;99955.31;;;23.61;51.68
48872;BME280;36154;51.674;7.824;2023-07-29T08:43:32;99956.09;;;23.63;51.77
48872;BME280;36154;51.674;7.824;2023-07-29T08:45:58;99968.06;;;23.66;52.18
48872;BME280;36154;51.674;7.824;2023-07-29T08:48:32;99960.19;;;23.68;51.57
48872;BME280;36154;51.674;7.824;2023-07-29T08:50:58;99971.44;;;23.68;52.10
48872;BME280;36154;51.674;7.824;2023-07-29T08:53:24;99967.09;;;23.69;51.67
48872;BME280;36154;51.674;7.824;2023-07-29T08:55:50;99969.09;;;23.63;51.14
48872;BME280;36154;51.674;7.824;2023-07-29T08:58:16;99969.25;;;23.60;51.19
48872;BME280;36154;51.674;7.824;2023-07-29T09:00:42;99976.13;;;23.61;50.91
48872;BME280;36154;51.674;7.824;2023-07-29T09:03:07;99983.91;;;23.61;50.63
48872;BME280;36154;51.674;7.824;2023-07-29T09:05:33;99972.75;;;23.59;50.29
48872;BME280;36154;51.674;7.824;2023-07-29T09:08:00;99972.91;;;23.56;50.27
48872;BME280;36154;51.674;7.824;2023-07-29T09:10:27;99970.41;;;23.55;50.44
48872;BME280;36154;51.674;7.824;2023-07-29T09:12:52;99960.84;;;23.55;50.72
48872;BME280;36154;51.674;7.824;2023-07-29T09:15:28;99975.44;;;23.58;50.73
48872;BME280;36154;51.674;7.824;2023-07-29T09:17:56;99969.25;;;23.60;50.43
48872;BME280;36154;51.674;7.824;2023-07-29T09:20:28;99971.78;;;23.62;50.13
48872;BME280;36154;51.674;7.824;2023-07-29T09:22:54;99976.91;;;23.63;50.34
48872;BME280;36154;51.674;7.824;2023-07-29T09:25:28;99975.06;;;23.66;50.56
48872;BME280;36154;51.674;7.824;2023-07-29T09:28:00;99968.00;;;23.68;50.37
48872;BME280;36154;51.674;7.824;2023-07-29T09:30:26;99977.50;;;23.69;50.48
48872;BME280;36154;51.674;7.824;2023-07-29T09:32:56;99963.56;;;23.70;50.21
48872;BME280;36154;51.674;7.824;2023-07-29T09:35:22;99974.81;;;23.70;49.95
48872;BME280;36154;51.674;7.824;2023-07-29T09:37:47;99963.38;;;23.73;50.37
48872;BME280;36154;51.674;7.824;2023-07-29T09:40:17;99968.59;;;23.73;49.96
48872;BME280;36154;51.674;7.824;2023-07-29T09:42:54;99965.84;;;23.76;50.40
48872;BME280;36154;51.674;7.824;2023-07-29T09:45:26;99964.94;;;23.77;49.91
48872;BME280;36154;51.674;7.824;2023-07-29T09:47:53;99967.53;;;23.77;50.02
48872;BME280;36154;51.674;7.824;2023-07-29T09:50:23;99959.72;;;23.77;49.38
48872;BME280;36154;51.674;7.824;2023-07-29T09:52:49;99966.59;;;23.78;49.37
48872;BME280;36154;51.674;7.824;2023-07-29T09:55:18;99965.84;;;23.76;49.05
48872;BME280;36154;51.674;7.824;2023-07-29T09:57:44;99963.22;;;23.76;48.94
48872;BME280;36154;51.674;7.824;2023-07-29T10:00:11;99962.31;;;23.77;49.02
48872;BME280;36154;51.674;7.824;2023-07-29T10:02:41;99966.59;;;23.78;49.50
48872;BME280;36154;51.674;7.824;2023-07-29T10:05:08;99975.13;;;23.80;49.24
48872;BME280;36154;51.674;7.824;2023-07-29T10:07:36;99980.25;;;23.81;49.32
48872;BME280;36154;51.674;7.824;2023-07-29T10:10:03;99973.22;;;23.84;49.79
48872;BME280;36154;51.674;7.824;2023-07-29T10:12:30;99969.78;;;23.83;49.67
48872;BME280;36154;51.674;7.824;2023-07-29T10:14:59;99975.66;;;23.87;49.42
48872;BME280;36154;51.674;7.824;2023-07-29T10:17:26;99973.84;;;23.89;49.66
48872;BME280;36154;51.674;7.824;2023-07-29T10:19:51;99964.25;;;23.89;49.44
48872;BME280;36154;51.674;7.824;2023-07-29T10:22:21;99973.72;;;23.90;49.16
48872;BME280;36154;51.674;7.824;2023-07-29T10:24:52;99978.94;;;23.90;49.26
48872;BME280;36154;51.674;7.824;2023-07-29T10:27:19;99979.72;;;23.92;49.20
48872;BME280;36154;51.674;7.824;2023-07-29T10:29:45;99986.56;;;23.93;48.96
48872;BME280;36154;51.674;7.824;2023-07-29T10:32:11;99991.78;;;23.93;49.05
48872;BME280;36154;51.674;7.824;2023-07-29T10:34:37;99986.56;;;23.93;48.73
48872;BME280;36154;51.674;7.824;2023-07-29T10:37:04;99988.34;;;23.93;49.09
48872;BME280;36154;51.674;7.824;2023-07-29T10:39:40;99977.94;;;23.93;49.19
48872;BME280;36154;51.674;7.824;2023-07-29T10:42:06;99982.22;;;23.94;49.18
48872;BME280;36154;51.674;7.824;2023-07-29T10:47:16;99970.81;;;23.96;48.93
48872;BME280;36154;51.674;7.824;2023-07-29T10:49:42;99968.13;;;23.98;49.16
48872;BME280;36154;51.674;7.824;2023-07-29T10:52:08;99951.69;;;23.97;49.44
48872;BME280;36154;51.674;7.824;2023-07-29T10:54:44;99956.72;;;24.00;49.32
48872;BME280;36154;51.674;7.824;2023-07-29T10:57:36;99960.06;;;24.03;49.48
48872;BME280;36154;51.674;7.824;2023-07-29T11:00:02;99956.63;;;24.02;49.61
48872;BME280;36154;51.674;7.824;2023-07-29T11:02:34;99970.47;;;24.03;49.10
48872;BME280;36154;51.674;7.824;2023-07-29T11:05:07;99962.69;;;24.03;49.48
48872;BME280;36154;51.674;7.824;2023-07-29T11:07:48;99960.91;;;24.03;49.80
48872;BME280;36154;51.674;7.824;2023-07-29T11:10:15;99949.75;;;24.01;49.60
48872;BME280;36154;51.674;7.824;2023-07-29T11:12:47;99938.44;;;24.02;49.56
48872;BME280;36154;51.674;7.824;2023-07-29T11:15:28;99933.09;;;24.04;49.76
48872;BME280;36154;51.674;7.824;2023-07-29T11:18:01;99936.66;;;24.03;49.50
48872;BME280;36154;51.674;7.824;2023-07-29T11:20:29;99944.31;;;24.06;49.50
48872;BME280;36154;51.674;7.824;2023-07-29T11:22:56;99941.69;;;24.06;49.72
48872;BME280;36154;51.674;7.824;2023-07-29T11:25:23;99945.97;;;24.07;50.08
48872;BME280;36154;51.674;7.824;2023-07-29T11:27:49;99939.00;;;24.07;49.51
48872;BME280;36154;51.674;7.824;2023-07-29T11:30:15;99939.84;;;24.08;50.01
48872;BME280;36154;51.674;7.824;2023-07-29T11:32:43;99946.75;;;24.09;49.92
48872;BME280;36154;51.674;7.824;2023-07-29T11:35:14;99924.88;;;24.11;50.39
48872;BME280;36154;51.674;7.824;2023-07-29T11:37:41;99940.44;;;24.13;50.20
48872;BME280;36154;51.674;7.824;2023-07-29T11:40:07;99944.72;;;24.14;50.34
48872;BME280;36154;51.674;7.824;2023-07-29T11:42:36;99949.84;;;24.15;50.60
48872;BME280;36154;51.674;7.824;2023-07-29T11:45:02;99947.13;;;24.17;50.59
48872;BME280;36154;51.674;7.824;2023-07-29T11:47:29;99943.59;;;24.18;50.06
48872;BME280;36154;51.674;7.824;2023-07-29T11:49:58;99937.41;;;24.21;50.29
48872;BME280;36154;51.674;7.824;2023-07-29T11:52:23;99939.06;;;24.22;50.78
48872;BME280;36154;51.674;7.824;2023-07-29T11:54:49;99936.38;;;24.23;50.46
48872;BME280;36154;51.674;7.824;2023-07-29T11:57:17;99937.13;;;24.25;50.22
48872;BME280;36154;51.674;7.824;2023-07-29T11:59:46;99942.34;;;24.25;50.34
48872;BME280;36154;51.674;7.824;2023-07-29T12:02:16;99933.66;;;24.26;50.18
48872;BME280;36154;51.674;7.824;2023-07-29T12:04:43;99938.78;;;24.28;49.84
48872;BME280;36154;51.674;7.824;2023-07-29T12:07:10;99937.94;;;24.27;49.56
48872;BME280;36154;51.674;7.824;2023-07-29T12:09:36;99950.00;;;24.28;49.87
48872;BME280;36154;51.674;7.824;2023-07-29T12:12:03;99946.50;;;24.29;49.09
48872;BME280;36154;51.674;7.824;2023-07-29T12:14:28;99935.34;;;24.27;49.28
48872;BME280;36154;51.674;7.824;2023-07-29T12:16:54;99931.72;;;24.30;49.19
48872;BME280;36154;51.674;7.824;2023-07-29T12:19:19;99939.44;;;24.31;49.33
48872;BME280;36154;51.674;7.824;2023-07-29T12:21:47;99929.84;;;24.32;48.95
48872;BME280;36154;51.674;7.824;2023-07-29T12:24:12;99929.84;;;24.32;49.29
48872;BME280;36154;51.674;7.824;2023-07-29T12:26:39;99936.66;;;24.34;48.74
48872;BME280;36154;51.674;7.824;2023-07-29T12:29:15;99924.47;;;24.35;48.62
48872;BME280;36154;51.674;7.824;2023-07-29T12:31:42;99927.81;;;24.37;49.02
48872;BME280;36154;51.674;7.824;2023-07-29T12:34:08;99930.34;;;24.39;48.70
48872;BME280;36154;51.674;7.824;2023-07-29T12:36:43;99926.81;;;24.40;48.54
48872;BME280;36154;51.674;7.824;2023-07-29T12:39:26;99919.03;;;24.40;48.43
48872;BME280;36154;51.674;7.824;2023-07-29T12:41:59;99927.66;;;24.40;48.50
48872;BME280;36154;51.674;7.824;2023-07-29T12:44:30;99917.31;;;24.39;48.21
48872;BME280;36154;51.674;7.824;2023-07-29T12:46:56;99923.41;;;24.39;48.33
48872;BME280;36154;51.674;7.824;2023-07-29T12:49:21;99933.03;;;24.37;48.38
48872;BME280;36154;51.674;7.824;2023-07-29T12:51:47;99931.47;;;24.34;48.22
48872;BME280;36154;51.674;7.824;2023-07-29T12:54:12;99932.19;;;24.36;48.49
48872;BME280;36154;51.674;7.824;2023-07-29T12:56:38;99951.34;;;24.35;48.44
48872;BME280;36154;51.674;7.824;2023-07-29T12:59:05;99929.84;;;24.32;48.06
48872;BME280;36154;51.674;7.824;2023-07-29T13:01:30;99939.28;;;24.34;47.81
48872;BME280;36154;51.674;7.824;2023-07-29T13:03:55;99941.88;;;24.34;48.23
48872;BME280;36154;51.674;7.824;2023-07-29T13:06:22;99942.78;;;24.33;48.11
48872;BME280;36154;51.674;7.824;2023-07-29T13:08:47;99948.06;;;24.32;47.82